Time;durP1;ratioP1;P1;durP2;ratioP2;P2;SDS_P1;SDS_P2;PMS_P1;PMS_P2;Temp;Humidity;BMP_temperature;BMP_pressure;BME280_temperature;BME280_humidity;BME280_pressure;Samples;Min_cycle;Max_cycle;Signal;HPM_P1;HPM_P2
2023/08/10 00:01:02;;;;;;;1.23;1.13;;;16.20;99.90;;;;;;4965706;28;20078;-80
2023/08/10 00:03:28;;;;;;;3.90;1.13;;;16.00;99.90;;;;;;4965929;28;20500;-79
2023/08/10 00:05:54;;;;;;;2.97;1.17;;;16.00;99.90;;;;;;4951127;28;20039;-80
2023/08/10 00:08:19;;;;;;;4.63;1.70;;;15.90;99.90;;;;;;4966075;28;20027;-80
2023/08/10 00:10:49;;;;;;;2.75;1.27;;;15.80;99.90;;;;;;4966085;28;20054;-79
2023/08/10 00:13:15;;;;;;;1.02;0.93;;;15.80;99.90;;;;;;4951341;29;20030;-79
2023/08/10 00:15:42;;;;;;;1.23;1.13;;;15.70;99.90;;;;;;4965568;28;20134;-79
2023/08/10 00:18:07;;;;;;;1.05;0.90;;;15.80;99.90;;;;;;4965886;28;20148;-79
2023/08/10 00:20:33;;;;;;;1.55;1.42;;;15.60;99.90;;;;;;4951187;28;20284;-80
2023/08/10 00:22:59;;;;;;;2.10;1.33;;;15.60;99.90;;;;;;4951281;29;20020;-79
2023/08/10 00:25:24;;;;;;;2.78;1.35;;;15.50;99.90;;;;;;4951162;28;20031;-80
2023/08/10 00:27:50;;;;;;;0.73;0.68;;;15.50;99.90;;;;;;4951266;29;20063;-79
2023/08/10 00:30:15;;;;;;;1.15;0.90;;;15.50;99.90;;;;;;4965297;28;20057;-80
2023/08/10 00:32:41;;;;;;;1.85;1.40;;;15.40;99.90;;;;;;4965578;28;20083;-79
2023/08/10 00:35:07;;;;;;;1.27;1.17;;;15.30;99.90;;;;;;4965986;28;20031;-79
2023/08/10 00:37:33;;;;;;;2.28;1.08;;;15.20;99.90;;;;;;4951448;29;20035;-80
2023/08/10 00:39:58;;;;;;;4.63;1.85;;;15.10;99.90;;;;;;4966056;28;20039;-80
2023/08/10 00:42:24;;;;;;;1.13;1.02;;;15.00;99.90;;;;;;4951264;28;20062;-79
2023/08/10 00:44:50;;;;;;;2.63;1.70;;;14.90;99.90;;;;;;4951074;28;20531;-78
2023/08/10 00:47:15;;;;;;;1.23;0.90;;;14.80;99.90;;;;;;4969054;28;20055;-80
2023/08/10 00:49:41;;;;;;;4.22;1.50;;;14.70;99.90;;;;;;4953584;29;20031;-80
2023/08/10 00:52:07;;;;;;;0.75;0.70;;;14.70;99.90;;;;;;4954534;28;20035;-80
2023/08/10 00:54:33;;;;;;;2.45;1.10;;;14.60;99.90;;;;;;4954923;28;20163;-79
2023/08/10 00:56:59;;;;;;;2.78;1.40;;;14.50;99.90;;;;;;4953267;28;20069;-79
2023/08/10 00:59:27;;;;;;;2.10;1.40;;;14.50;99.90;;;;;;4969201;28;20082;-80
2023/08/10 01:01:53;;;;;;;1.42;1.27;;;14.50;99.90;;;;;;4954953;28;20039;-79
2023/08/10 01:04:19;;;;;;;5.75;1.48;;;14.40;99.90;;;;;;4969176;28;20046;-80
2023/08/10 01:06:55;;;;;;;2.85;1.15;;;14.20;99.90;;;;;;4969256;28;20558;-80
2023/08/10 01:09:36;;;;;;;3.20;1.40;;;14.10;99.90;;;;;;4969435;28;20034;-78
2023/08/10 01:12:17;;;;;;;3.30;1.40;;;14.10;99.90;;;;;;4951922;28;20126;-78
2023/08/10 01:15:01;;;;;;;1.60;1.23;;;14.00;99.90;;;;;;4952917;29;20031;-79
2023/08/10 01:17:29;;;;;;;1.63;1.48;;;13.90;99.90;;;;;;4988033;28;20167;-78
2023/08/10 01:19:58;;;;;;;2.05;1.75;;;13.90;99.90;;;;;;4988453;28;20030;-79
2023/08/10 01:23:01;;;;;;;1.67;1.55;;;13.80;99.90;;;;;;4987796;28;20435;-79
2023/08/10 01:25:27;;;;;;;4.88;1.65;;;13.70;99.90;;;;;;4971838;28;20117;-80
2023/08/10 01:27:54;;;;;;;2.58;1.30;;;13.70;99.90;;;;;;4973415;28;20109;-79
2023/08/10 01:30:20;;;;;;;1.27;1.13;;;13.70;99.90;;;;;;4972726;28;20031;-79
2023/08/10 01:32:46;;;;;;;1.60;1.48;;;13.60;99.90;;;;;;4973483;28;20025;-79
2023/08/10 01:35:12;;;;;;;2.72;1.50;;;13.60;99.90;;;;;;4990361;28;20117;-79
2023/08/10 01:37:38;;;;;;;1.48;1.25;;;13.50;99.90;;;;;;4989798;28;20031;-81
2023/08/10 01:40:08;;;;;;;1.42;1.33;;;13.40;99.90;;;;;;4990516;28;20023;-79
2023/08/10 01:42:33;;;;;;;;;;;13.30;99.90;;;;;;4977410;28;20033;-80
2023/08/10 01:44:59;;;;;;;3.28;1.17;;;13.30;99.90;;;;;;4978848;28;19906;-80
2023/08/10 01:47:36;;;;;;;1.30;1.20;;;13.30;99.90;;;;;;4999159;28;20031;-81
2023/08/10 01:50:05;;;;;;;2.13;1.52;;;13.30;99.90;;;;;;4997918;28;20026;-81
2023/08/10 01:52:43;;;;;;;;;;;13.20;99.90;;;;;;4983599;28;20030;-80
2023/08/10 01:55:09;;;;;;;2.50;1.48;;;13.10;99.90;;;;;;4984158;28;19912;-80
2023/08/10 01:57:36;;;;;;;3.42;1.30;;;13.10;99.90;;;;;;4983220;28;20376;-81
2023/08/10 02:00:02;;;;;;;2.10;1.67;;;13.10;99.90;;;;;;4983085;28;20049;-79
2023/08/10 02:02:29;;;;;;;3.10;1.50;;;13.00;99.90;;;;;;4980106;28;20031;-81
2023/08/10 02:04:54;;;;;;;5.93;2.28;;;12.90;99.90;;;;;;4979904;28;20027;-81
2023/08/10 02:07:20;;;;;;;2.13;1.73;;;12.90;99.90;;;;;;4984550;28;20035;-80
2023/08/10 02:09:46;;;;;;;4.38;1.20;;;12.90;99.90;;;;;;4984304;28;20023;-81
2023/08/10 02:12:12;;;;;;;2.78;1.67;;;12.90;99.90;;;;;;4984005;28;20042;-81
2023/08/10 02:14:38;;;;;;;1.45;1.35;;;12.80;99.90;;;;;;4985636;28;20019;-79
2023/08/10 02:17:03;;;;;;;1.83;1.40;;;12.90;99.90;;;;;;4983927;28;20222;-80
2023/08/10 02:19:29;;;;;;;2.88;1.80;;;12.80;99.90;;;;;;4983933;28;20022;-80
2023/08/10 02:21:54;;;;;;;1.50;1.40;;;12.80;99.90;;;;;;4984781;28;20061;-79
2023/08/10 02:24:20;;;;;;;2.97;1.42;;;12.70;99.90;;;;;;4982859;28;20029;-80
2023/08/10 02:26:46;;;;;;;1.67;1.38;;;12.70;99.90;;;;;;4988345;28;20043;-80
2023/08/10 02:29:12;;;;;;;1.95;1.30;;;12.70;99.90;;;;;;4986240;28;20053;-79
2023/08/10 02:31:38;;;;;;;2.88;1.45;;;12.60;99.90;;;;;;4983595;28;20038;-79
2023/08/10 02:34:03;;;;;;;10.13;1.50;;;12.50;99.90;;;;;;4983656;28;20059;-80
2023/08/10 02:36:29;;;;;;;1.15;1.10;;;12.50;99.90;;;;;;4985050;28;20027;-80
2023/08/10 02:38:55;;;;;;;1.85;1.67;;;12.50;99.90;;;;;;4985591;28;20047;-81
2023/08/10 02:41:21;;;;;;;1.60;1.48;;;12.50;99.90;;;;;;4985438;28;20170;-80
2023/08/10 02:43:46;;;;;;;1.20;1.17;;;12.40;99.90;;;;;;4986688;28;20031;-80
2023/08/10 02:46:12;;;;;;;3.17;1.33;;;12.40;99.90;;;;;;4986930;28;20035;-81
2023/08/10 02:48:38;;;;;;;1.33;1.23;;;12.40;99.90;;;;;;4990990;28;20023;-80
2023/08/10 02:51:05;;;;;;;0.88;0.88;;;12.40;99.90;;;;;;4990348;28;20031;-80
2023/08/10 02:53:30;;;;;;;1.50;1.40;;;12.50;99.90;;;;;;4991487;28;20029;-80
2023/08/10 02:55:57;;;;;;;1.20;1.20;;;12.40;99.90;;;;;;5005695;28;20050;-80
2023/08/10 02:58:24;;;;;;;1.20;1.08;;;12.40;99.90;;;;;;4991115;28;20043;-80
2023/08/10 03:00:50;;;;;;;2.00;1.40;;;12.30;99.90;;;;;;4988479;28;20090;-80
2023/08/10 03:03:15;;;;;;;1.80;1.48;;;12.40;99.90;;;;;;4991729;28;20023;-81
2023/08/10 03:05:42;;;;;;;1.98;1.50;;;12.30;99.90;;;;;;4991792;28;20038;-81
2023/08/10 03:08:08;;;;;;;3.75;1.50;;;12.20;99.90;;;;;;4993772;28;20027;-80
2023/08/10 03:10:33;;;;;;;4.85;1.50;;;12.20;99.90;;;;;;4992053;28;20050;-80
2023/08/10 03:12:59;;;;;;;1.13;0.95;;;12.20;99.90;;;;;;4988118;28;20033;-79
2023/08/10 03:15:25;;;;;;;1.33;1.25;;;12.20;99.90;;;;;;5003219;28;20026;-79
2023/08/10 03:17:59;;;;;;;3.92;1.55;;;12.10;99.90;;;;;;4987403;28;20562;-79
2023/08/10 03:20:25;;;;;;;1.75;1.60;;;12.20;99.90;;;;;;4988824;28;20553;-81
2023/08/10 03:22:51;;;;;;;2.35;1.70;;;12.00;99.90;;;;;;4990158;28;20031;-80
2023/08/10 03:25:17;;;;;;;1.65;1.55;;;12.00;99.90;;;;;;4989628;28;20065;-80
2023/08/10 03:27:44;;;;;;;4.57;1.92;;;12.00;99.90;;;;;;4989700;28;20049;-80
2023/08/10 03:30:10;;;;;;;1.92;1.83;;;12.00;99.90;;;;;;4989501;28;20087;-80
2023/08/10 03:32:37;;;;;;;2.17;1.98;;;12.00;99.90;;;;;;4989374;28;20027;-80
2023/08/10 03:35:05;;;;;;;2.67;1.70;;;12.00;99.90;;;;;;4988021;28;20022;-80
2023/08/10 03:37:31;;;;;;;3.20;2.05;;;12.00;99.90;;;;;;4990620;28;20023;-79
2023/08/10 03:39:56;;;;;;;1.33;1.20;;;12.00;99.90;;;;;;4990744;28;20025;-79
2023/08/10 03:42:25;;;;;;;1.95;1.10;;;12.00;99.90;;;;;;4989255;28;20023;-79
2023/08/10 03:44:54;;;;;;;1.40;1.30;;;12.00;99.90;;;;;;4989383;28;20054;-80
2023/08/10 03:47:21;;;;;;;2.08;1.88;;;11.90;99.90;;;;;;4971919;28;20047;-80
2023/08/10 03:49:49;;;;;;;7.07;1.70;;;11.80;99.90;;;;;;4970513;29;20050;-80
2023/08/10 03:52:15;;;;;;;2.35;1.52;;;11.80;99.90;;;;;;5002913;28;20035;-80
2023/08/10 03:54:44;;;;;;;1.73;1.60;;;11.70;99.90;;;;;;4989119;28;20062;-80
2023/08/10 03:57:09;;;;;;;1.87;1.43;;;11.70;99.90;;;;;;4957065;29;20031;-80
2023/08/10 03:59:35;;;;;;;1.30;1.20;;;11.80;99.90;;;;;;4983875;28;20300;-81
2023/08/10 04:02:22;;;;;;;2.85;1.60;;;11.80;99.90;;;;;;5004458;28;20031;-80
2023/08/10 04:04:48;;;;;;;1.70;1.38;;;11.80;99.90;;;;;;4992096;28;20037;-80
2023/08/10 04:07:14;;;;;;;2.17;1.88;;;11.80;99.90;;;;;;4992431;28;20510;-80
2023/08/10 04:09:44;;;;;;;2.20;1.58;;;11.80;99.90;;;;;;5010002;28;20026;-81
2023/08/10 04:12:10;;;;;;;2.15;1.50;;;11.80;99.90;;;;;;5010163;28;20478;-80
2023/08/10 04:14:38;;;;;;;3.00;2.05;;;11.80;99.90;;;;;;5010143;28;20311;-80
2023/08/10 04:17:04;;;;;;;1.75;1.48;;;11.80;99.90;;;;;;5008567;28;20037;-80
2023/08/10 04:19:30;;;;;;;1.27;1.17;;;11.80;99.90;;;;;;5009078;28;20034;-81
2023/08/10 04:22:15;;;;;;;1.35;1.30;;;11.70;99.90;;;;;;5014353;28;20049;-80
2023/08/10 04:24:41;;;;;;;3.85;1.92;;;11.60;99.90;;;;;;5013026;28;20026;-80
2023/08/10 04:27:06;;;;;;;1.45;1.35;;;11.70;99.90;;;;;;5012822;28;20505;-79
2023/08/10 04:29:32;;;;;;;1.92;1.83;;;11.70;99.90;;;;;;5012794;28;20026;-79
2023/08/10 04:31:58;;;;;;;2.25;1.38;;;11.80;99.90;;;;;;5011184;28;20042;-81
2023/08/10 04:34:24;;;;;;;2.17;1.58;;;11.80;99.90;;;;;;4996073;28;20038;-80
2023/08/10 04:36:50;;;;;;;2.05;0.98;;;11.80;99.90;;;;;;5012660;28;20042;-81
2023/08/10 04:39:25;;;;;;;1.45;1.20;;;11.90;99.90;;;;;;4996014;28;20026;-81
2023/08/10 04:41:51;;;;;;;3.75;1.85;;;11.90;99.90;;;;;;4996200;28;20029;-80
2023/08/10 04:44:21;;;;;;;3.70;1.95;;;11.90;99.90;;;;;;4996120;28;20081;-81
2023/08/10 04:47:19;;;;;;;3.85;2.30;;;11.90;99.90;;;;;;4986196;28;20038;-80
2023/08/10 04:49:44;;;;;;;1.92;1.65;;;12.00;99.90;;;;;;4965765;28;20055;-80
2023/08/10 04:52:10;;;;;;;2.95;1.98;;;12.00;99.90;;;;;;5006498;28;20077;-80
2023/08/10 04:54:37;;;;;;;3.75;1.90;;;12.20;99.90;;;;;;5013382;28;20026;-81
2023/08/10 04:57:03;;;;;;;1.10;1.05;;;12.10;99.90;;;;;;4996318;28;20026;-80
2023/08/10 04:59:32;;;;;;;1.42;1.33;;;12.10;99.90;;;;;;4994476;28;20073;-81
2023/08/10 05:02:18;;;;;;;1.30;1.20;;;12.10;99.90;;;;;;4994876;28;20035;-81
2023/08/10 05:04:44;;;;;;;1.50;1.40;;;12.10;99.90;;;;;;4995084;28;20062;-81
2023/08/10 05:07:10;;;;;;;5.63;1.85;;;12.10;99.90;;;;;;4980533;28;20035;-79
2023/08/10 05:09:37;;;;;;;2.95;2.00;;;12.10;99.90;;;;;;4974781;29;20372;-81
2023/08/10 05:12:04;;;;;;;3.63;2.25;;;12.10;99.90;;;;;;5003171;28;20026;-80
2023/08/10 05:14:30;;;;;;;3.30;2.58;;;12.20;99.90;;;;;;4978227;28;20054;-81
2023/08/10 05:16:57;;;;;;;3.05;1.70;;;12.40;99.90;;;;;;4990482;28;20023;-81
2023/08/10 05:19:22;;;;;;;3.08;1.92;;;12.50;99.90;;;;;;4982808;28;20027;-79
2023/08/10 05:21:49;;;;;;;1.75;1.63;;;12.50;99.90;;;;;;4982525;28;20027;-80
2023/08/10 05:24:14;;;;;;;1.75;1.58;;;12.50;99.90;;;;;;4965238;28;20490;-80
2023/08/10 05:26:40;;;;;;;1.73;1.60;;;12.60;99.90;;;;;;4978675;28;20046;-81
2023/08/10 05:29:05;;;;;;;3.30;2.40;;;12.70;99.90;;;;;;4989766;28;20097;-81
2023/08/10 05:31:31;;;;;;;5.93;2.38;;;12.90;99.90;;;;;;4987866;28;20031;-81
2023/08/10 05:33:57;;;;;;;3.22;2.15;;;12.90;99.90;;;;;;4987356;28;20058;-81
2023/08/10 05:36:23;;;;;;;4.40;1.60;;;13.00;99.90;;;;;;4973215;28;20047;-80
2023/08/10 05:38:48;;;;;;;7.78;2.22;;;13.10;99.90;;;;;;4970882;28;20023;-80
2023/08/10 05:41:14;;;;;;;2.15;1.55;;;13.20;99.90;;;;;;4955085;28;20047;-82
2023/08/10 05:43:39;;;;;;;2.35;2.10;;;13.20;99.90;;;;;;4969366;28;20110;-81
2023/08/10 05:46:05;;;;;;;1.30;1.20;;;13.30;99.90;;;;;;4952545;28;20043;-81
2023/08/10 05:48:31;;;;;;;2.50;1.67;;;13.40;99.90;;;;;;4969109;28;20059;-81
2023/08/10 05:50:56;;;;;;;4.43;1.58;;;13.50;99.90;;;;;;4968852;28;20062;-80
2023/08/10 05:53:22;;;;;;;1.52;1.25;;;13.60;99.90;;;;;;4968898;28;20477;-81
2023/08/10 05:55:50;;;;;;;2.83;2.10;;;13.70;99.90;;;;;;4968889;28;20113;-80
2023/08/10 05:58:15;;;;;;;6.68;2.17;;;13.80;99.90;;;;;;4970917;28;20475;-80
2023/08/10 06:00:41;;;;;;;3.15;2.03;;;14.00;99.90;;;;;;4955495;28;20023;-75
2023/08/10 06:03:07;;;;;;;3.40;1.90;;;14.10;99.90;;;;;;4972740;28;20109;-74
2023/08/10 06:05:33;;;;;;;2.50;2.30;;;14.20;99.90;;;;;;4972425;28;20419;-74
2023/08/10 06:07:59;;;;;;;3.67;1.98;;;14.30;99.90;;;;;;4972563;28;20037;-74
2023/08/10 06:10:25;;;;;;;3.90;2.15;;;14.50;99.90;;;;;;4955333;28;20018;-75
2023/08/10 06:12:52;;;;;;;3.05;2.03;;;14.70;99.90;;;;;;4972480;28;20030;-75
2023/08/10 06:15:17;;;;;;;5.03;2.88;;;14.90;99.90;;;;;;4972156;28;20026;-74
2023/08/10 06:17:44;;;;;;;3.88;2.50;;;15.10;99.90;;;;;;4972291;28;20035;-74
2023/08/10 06:20:16;;;;;;;2.63;2.13;;;15.10;99.90;;;;;;4970839;28;20166;-74
2023/08/10 06:22:42;;;;;;;77.00;19.05;;;15.30;99.90;;;;;;4972512;28;20192;-73
2023/08/10 06:25:09;;;;;;;7.68;4.18;;;15.40;99.90;;;;;;4972420;28;20180;-70
2023/08/10 06:27:35;;;;;;;3.97;2.75;;;15.50;99.90;;;;;;4972403;28;20038;-70
2023/08/10 06:30:02;;;;;;;3.50;2.35;;;15.60;99.90;;;;;;4971772;28;20022;-70
2023/08/10 06:32:28;;;;;;;3.42;2.60;;;15.80;99.90;;;;;;4972236;28;20029;-70
2023/08/10 06:34:56;;;;;;;3.58;2.75;;;16.20;99.90;;;;;;4972751;28;20015;-70
2023/08/10 06:37:22;;;;;;;6.73;3.17;;;16.50;99.90;;;;;;4972338;28;20034;-75
2023/08/10 06:39:48;;;;;;;3.05;2.72;;;16.40;99.90;;;;;;4972754;28;20292;-72
2023/08/10 06:42:14;;;;;;;4.32;2.38;;;16.60;99.90;;;;;;4971594;28;20030;-71
2023/08/10 06:44:40;;;;;;;5.35;2.50;;;16.70;99.90;;;;;;4971014;28;20540;-71
2023/08/10 06:47:06;;;;;;;3.88;2.80;;;16.80;99.90;;;;;;4953704;28;20133;-70
2023/08/10 06:49:32;;;;;;;2.88;2.30;;;16.90;99.90;;;;;;4973528;28;20101;-72
2023/08/10 06:51:58;;;;;;;5.05;2.25;;;16.90;99.90;;;;;;4983192;28;20428;-72
2023/08/10 06:54:26;;;;;;;5.18;2.85;;;17.00;99.90;;;;;;4970726;28;20089;-71
2023/08/10 06:56:52;;;;;;;5.00;2.77;;;17.00;99.90;;;;;;4989711;28;20037;-72
2023/08/10 06:59:18;;;;;;;4.95;2.38;;;17.10;99.90;;;;;;4990478;28;20050;-71
2023/08/10 07:01:43;;;;;;;3.10;2.20;;;17.10;99.90;;;;;;4987915;28;20050;-76
2023/08/10 07:04:09;;;;;;;2.50;2.30;;;17.30;99.90;;;;;;4990534;28;20030;-76
2023/08/10 07:06:35;;;;;;;1.83;1.73;;;17.70;99.90;;;;;;4972801;28;20034;-76
2023/08/10 07:09:00;;;;;;;11.80;2.88;;;18.30;99.90;;;;;;4990530;28;20065;-75
2023/08/10 07:11:26;;;;;;;5.45;2.40;;;19.10;99.90;;;;;;4973234;28;20491;-75
2023/08/10 07:13:51;;;;;;;2.53;1.98;;;20.50;99.90;;;;;;4972661;28;20030;-75
2023/08/10 07:16:17;;;;;;;4.40;2.55;;;22.20;99.90;;;;;;4989843;28;20041;-75
2023/08/10 07:18:43;;;;;;;2.58;2.20;;;23.50;99.90;;;;;;4990356;28;20030;-75
2023/08/10 07:21:09;;;;;;;2.50;2.13;;;24.50;99.40;;;;;;4990133;28;20030;-74
2023/08/10 07:23:35;;;;;;;3.65;2.42;;;25.00;95.30;;;;;;4990331;28;20057;-75
2023/08/10 07:26:00;;;;;;;6.50;2.67;;;24.30;94.90;;;;;;4989969;28;20451;-74
2023/08/10 07:28:26;;;;;;;4.03;1.70;;;24.00;94.50;;;;;;4990412;28;20153;-76
2023/08/10 07:30:53;;;;;;;3.40;2.47;;;23.10;97.00;;;;;;4973058;28;20082;-75
2023/08/10 07:33:18;;;;;;;5.35;2.35;;;22.70;98.40;;;;;;4974176;28;20491;-75
2023/08/10 07:35:45;;;;;;;3.03;2.28;;;21.50;99.90;;;;;;4988626;28;20347;-76
2023/08/10 07:38:11;;;;;;;10.32;2.63;;;21.70;99.90;;;;;;4976603;28;20031;-77
2023/08/10 07:40:37;;;;;;;2.13;1.92;;;22.10;99.90;;;;;;4969847;28;20041;-74
2023/08/10 07:43:03;;;;;;;4.85;1.60;;;21.40;99.90;;;;;;4970131;28;20027;-73
2023/08/10 07:45:28;;;;;;;2.72;2.08;;;20.90;99.90;;;;;;4969182;28;20503;-74
2023/08/10 07:47:54;;;;;;;3.85;1.80;;;21.70;99.90;;;;;;4969411;28;20045;-74
2023/08/10 07:50:20;;;;;;;8.48;2.67;;;21.80;99.90;;;;;;4970176;28;20027;-73
2023/08/10 07:52:45;;;;;;;2.33;1.58;;;22.00;99.90;;;;;;4970333;28;20061;-74
2023/08/10 07:55:15;;;;;;;4.55;1.27;;;22.60;99.90;;;;;;4970012;28;20023;-74
2023/08/10 07:57:41;;;;;;;2.78;1.75;;;23.50;97.80;;;;;;4970233;28;20081;-75
2023/08/10 08:00:09;;;;;;;3.40;1.88;;;24.70;95.10;;;;;;4969713;28;20047;-74
2023/08/10 08:02:36;;;;;;;4.27;1.80;;;25.80;91.70;;;;;;4970875;28;20026;-75
2023/08/10 08:05:02;;;;;;;4.93;1.95;;;26.60;89.60;;;;;;4970282;28;20047;-75
2023/08/10 08:07:30;;;;;;;4.63;1.60;;;27.20;83.20;;;;;;4970094;28;20447;-75
2023/08/10 08:09:59;;;;;;;2.53;1.67;;;27.60;79.50;;;;;;4970155;28;20073;-76
2023/08/10 08:12:28;;;;;;;;;;;27.20;79.10;;;;;;4970729;28;20357;-77
2023/08/10 08:14:56;;;;;;;4.75;2.38;;;27.10;79.50;;;;;;4969786;28;19913;-76
2023/08/10 08:17:22;;;;;;;1.95;1.77;;;27.20;78.80;;;;;;4970514;28;20554;-77
2023/08/10 08:19:55;;;;;;;1.73;1.60;;;26.80;78.30;;;;;;4970327;28;20027;-75
2023/08/10 08:22:21;;;;;;;1.77;1.67;;;26.70;78.10;;;;;;4970105;28;20035;-75
2023/08/10 08:24:50;;;;;;;2.15;1.70;;;27.00;78.20;;;;;;4970050;28;20030;-74
2023/08/10 08:27:15;;;;;;;3.15;1.73;;;27.00;77.20;;;;;;4969730;28;20031;-76
2023/08/10 08:29:41;;;;;;;2.53;1.67;;;26.50;79.50;;;;;;4969625;28;20035;-75
2023/08/10 08:32:07;;;;;;;1.55;1.20;;;26.50;78.80;;;;;;4969882;28;20423;-74
2023/08/10 08:34:35;;;;;;;1.50;1.30;;;26.90;77.10;;;;;;4970068;28;20058;-74
2023/08/10 08:37:01;;;;;;;2.05;1.35;;;27.30;77.00;;;;;;4968707;28;20027;-74
2023/08/10 08:39:26;;;;;;;1.85;1.58;;;27.10;76.40;;;;;;4969987;28;20081;-75
2023/08/10 08:41:53;;;;;;;1.67;1.58;;;27.50;74.90;;;;;;4970815;28;20053;-75
2023/08/10 08:44:19;;;;;;;4.40;1.48;;;27.90;74.90;;;;;;4970935;28;20424;-75
2023/08/10 08:46:48;;;;;;;2.25;1.08;;;28.50;73.20;;;;;;4987767;28;20172;-74
2023/08/10 08:49:15;;;;;;;6.65;1.70;;;28.10;73.40;;;;;;4986375;28;20026;-75
2023/08/10 08:51:41;;;;;;;1.30;1.15;;;27.70;75.30;;;;;;4970628;28;20037;-75
2023/08/10 08:54:07;;;;;;;1.30;1.20;;;27.80;74.20;;;;;;4987890;28;20034;-75
2023/08/10 08:56:33;;;;;;;1.98;1.35;;;27.90;74.50;;;;;;4988413;28;20035;-74
2023/08/10 08:58:58;;;;;;;1.52;1.42;;;28.00;71.80;;;;;;4987734;28;20046;-76
2023/08/10 09:01:25;;;;;;;1.42;1.33;;;27.10;73.70;;;;;;4972565;28;20118;-75
2023/08/10 09:03:50;;;;;;;4.43;1.92;;;26.90;74.20;;;;;;4967417;28;20062;-74
2023/08/10 09:06:16;;;;;;;1.27;1.13;;;26.80;75.60;;;;;;4951385;28;20118;-75
2023/08/10 09:08:42;;;;;;;2.72;1.58;;;27.00;74.20;;;;;;4965994;28;20415;-75
2023/08/10 09:11:08;;;;;;;1.30;1.20;;;27.10;74.40;;;;;;4974199;28;20037;-74
2023/08/10 09:13:34;;;;;;;1.55;1.30;;;27.30;74.30;;;;;;4981238;28;20236;-76
2023/08/10 09:16:14;;;;;;;1.17;1.08;;;26.60;76.50;;;;;;4971724;28;20518;-74
2023/08/10 09:18:43;;;;;;;2.72;1.45;;;26.40;76.40;;;;;;4971961;28;20475;-76
2023/08/10 09:21:12;;;;;;;2.25;1.50;;;25.80;76.50;;;;;;4972041;28;20106;-75
2023/08/10 09:23:37;;;;;;;3.40;1.33;;;25.60;77.10;;;;;;4972415;28;20468;-75
2023/08/10 09:26:11;;;;;;;5.53;2.05;;;26.10;76.70;;;;;;4954484;28;20038;-74
2023/08/10 09:28:37;;;;;;;4.68;2.20;;;26.30;75.60;;;;;;4971926;28;20026;-75
2023/08/10 09:31:04;;;;;;;1.10;1.00;;;26.30;77.20;;;;;;4954354;28;20446;-77
2023/08/10 09:33:32;;;;;;;2.55;1.15;;;26.40;77.70;;;;;;4971898;28;20054;-77
2023/08/10 09:36:07;;;;;;;1.92;1.08;;;26.90;74.90;;;;;;4971626;28;20484;-74
2023/08/10 09:38:33;;;;;;;0.80;0.80;;;26.00;76.10;;;;;;4971516;28;20027;-75
2023/08/10 09:41:15;;;;;;;1.30;1.20;;;25.90;77.50;;;;;;4971705;28;20022;-74
2023/08/10 09:43:43;;;;;;;3.85;1.17;;;26.40;76.60;;;;;;4970340;28;20034;-74
2023/08/10 09:46:10;;;;;;;4.72;1.92;;;27.00;75.10;;;;;;4953860;28;20031;-74
2023/08/10 09:48:41;;;;;;;2.72;1.42;;;27.20;74.60;;;;;;4954330;28;20499;-75
2023/08/10 09:51:09;;;;;;;5.47;1.20;;;27.20;72.70;;;;;;4971904;28;20035;-75
2023/08/10 09:53:35;;;;;;;4.60;1.30;;;26.90;74.70;;;;;;4954442;28;20054;-75
2023/08/10 09:56:02;;;;;;;1.75;1.33;;;26.60;75.30;;;;;;4953785;28;20484;-74
2023/08/10 09:58:28;;;;;;;1.48;1.13;;;26.40;75.60;;;;;;4971045;28;20039;-78
2023/08/10 10:00:54;;;;;;;1.55;1.17;;;26.50;74.80;;;;;;4970831;28;20073;-72
2023/08/10 10:03:22;;;;;;;2.90;1.30;;;26.90;73.70;;;;;;5000281;28;20054;-74
2023/08/10 10:05:49;;;;;;;2.55;1.13;;;26.70;73.40;;;;;;5001105;28;20045;-76
2023/08/10 10:08:16;;;;;;;2.30;1.20;;;26.50;75.80;;;;;;4973312;28;20030;-74
2023/08/10 10:10:43;;;;;;;3.42;1.20;;;26.50;73.80;;;;;;4972526;28;20030;-75
2023/08/10 10:13:15;;;;;;;2.38;1.20;;;26.70;73.50;;;;;;4986003;28;20516;-75
2023/08/10 10:15:44;;;;;;;5.82;1.10;;;27.20;73.90;;;;;;4951568;28;20041;-75
2023/08/10 10:18:11;;;;;;;3.15;0.90;;;27.60;72.90;;;;;;4951738;28;20032;-74
2023/08/10 10:20:43;;;;;;;4.55;1.40;;;27.90;71.90;;;;;;4969067;28;20031;-75
2023/08/10 10:23:20;;;;;;;1.75;1.65;;;28.00;72.50;;;;;;4969360;28;20023;-75
2023/08/10 10:25:59;;;;;;;1.02;1.00;;;28.20;72.90;;;;;;4969588;28;20085;-74
2023/08/10 10:28:27;;;;;;;0.95;0.90;;;27.50;71.50;;;;;;4969870;28;20127;-73
2023/08/10 10:31:14;;;;;;;1.33;1.00;;;27.30;73.40;;;;;;4952619;28;20027;-75
2023/08/10 10:33:56;;;;;;;1.33;1.23;;;27.80;75.00;;;;;;4969728;28;20550;-76
2023/08/10 10:36:22;;;;;;;1.50;0.90;;;28.00;72.20;;;;;;4970303;28;20030;-75
2023/08/10 10:38:52;;;;;;;2.15;1.05;;;27.60;70.90;;;;;;4969159;28;20033;-75
2023/08/10 10:41:32;;;;;;;1.48;1.10;;;26.70;72.50;;;;;;4970232;28;20034;-74
2023/08/10 10:43:59;;;;;;;1.52;1.35;;;26.50;72.50;;;;;;4953685;28;20078;-75
2023/08/10 10:46:31;;;;;;;4.57;1.33;;;26.80;72.10;;;;;;4953624;28;20039;-75
2023/08/10 10:48:57;;;;;;;1.33;1.00;;;27.10;72.00;;;;;;4971361;28;20186;-74
2023/08/10 10:51:24;;;;;;;1.60;1.20;;;27.30;71.40;;;;;;4971426;28;20027;-75
2023/08/10 10:53:53;;;;;;;1.67;1.13;;;27.20;70.40;;;;;;4953957;28;20041;-75
2023/08/10 10:56:22;;;;;;;0.95;0.80;;;27.40;71.10;;;;;;4971602;28;20387;-74
2023/08/10 10:58:48;;;;;;;1.13;1.02;;;27.90;69.60;;;;;;4971161;28;20053;-75
2023/08/10 11:01:21;;;;;;;1.67;1.00;;;27.70;70.70;;;;;;4971236;28;20038;-74
2023/08/10 11:03:54;;;;;;;0.95;0.80;;;27.60;70.00;;;;;;4971457;28;20022;-74
2023/08/10 11:06:21;;;;;;;1.88;1.08;;;27.10;70.80;;;;;;4953418;28;20047;-74
2023/08/10 11:08:50;;;;;;;1.52;0.70;;;27.10;73.00;;;;;;4953495;28;20054;-74
2023/08/10 11:11:17;;;;;;;0.82;0.75;;;27.40;72.60;;;;;;4953587;28;20512;-75
2023/08/10 11:13:43;;;;;;;2.58;0.90;;;27.60;71.60;;;;;;4953593;28;20383;-74
2023/08/10 11:16:09;;;;;;;1.20;0.82;;;28.10;71.70;;;;;;4970847;28;20559;-75
2023/08/10 11:18:37;;;;;;;0.85;0.85;;;28.20;68.30;;;;;;4970566;28;20019;-74
2023/08/10 11:21:06;;;;;;;0.85;0.85;;;28.20;66.60;;;;;;4970893;28;20089;-74
2023/08/10 11:23:32;;;;;;;1.08;0.93;;;28.80;66.60;;;;;;4970765;28;20046;-75
2023/08/10 11:25:58;;;;;;;1.63;1.05;;;29.10;65.90;;;;;;4970436;28;20084;-74
2023/08/10 11:28:25;;;;;;;2.47;0.90;;;29.30;65.20;;;;;;4970703;28;20081;-74
2023/08/10 11:30:51;;;;;;;1.15;0.82;;;29.80;65.00;;;;;;4970065;28;20026;-75
2023/08/10 11:33:17;;;;;;;1.65;1.02;;;29.60;64.30;;;;;;4952995;28;20101;-75
2023/08/10 11:35:50;;;;;;;0.82;0.57;;;28.60;64.60;;;;;;4971056;28;20407;-75
2023/08/10 11:38:15;;;;;;;4.45;1.35;;;29.00;65.00;;;;;;4970418;28;20595;-74
2023/08/10 11:40:42;;;;;;;0.95;0.95;;;28.80;65.00;;;;;;4970606;28;20034;-74
2023/08/10 11:43:12;;;;;;;2.30;0.98;;;28.80;64.80;;;;;;4970443;28;20110;-75
2023/08/10 11:45:39;;;;;;;1.48;0.93;;;28.90;65.80;;;;;;4952805;28;20036;-75
2023/08/10 11:48:09;;;;;;;1.23;0.90;;;29.20;64.40;;;;;;4952516;28;20035;-76
2023/08/10 11:50:38;;;;;;;1.00;0.95;;;29.70;64.20;;;;;;4970581;28;20551;-75
2023/08/10 11:53:15;;;;;;;1.15;1.15;;;30.30;63.50;;;;;;4970364;28;20423;-75
2023/08/10 11:55:47;;;;;;;0.90;0.80;;;31.10;64.00;;;;;;4953193;28;20046;-76
2023/08/10 11:58:14;;;;;;;0.85;0.82;;;31.40;64.20;;;;;;4952324;28;20034;-74
2023/08/10 12:00:41;;;;;;;1.20;0.90;;;30.20;63.10;;;;;;4952888;28;20022;-74
2023/08/10 12:03:16;;;;;;;0.70;0.70;;;30.30;63.50;;;;;;4952448;28;20037;-75
2023/08/10 12:05:48;;;;;;;1.15;0.80;;;30.50;62.80;;;;;;4952644;28;20241;-75
2023/08/10 12:08:16;;;;;;;0.73;0.73;;;30.50;63.00;;;;;;4970142;28;20061;-74
2023/08/10 12:10:42;;;;;;;1.00;0.95;;;29.60;63.80;;;;;;4970275;28;20041;-76
2023/08/10 12:13:10;;;;;;;1.65;1.10;;;29.40;64.00;;;;;;4970275;28;20054;-75
2023/08/10 12:15:37;;;;;;;1.30;1.20;;;29.70;65.60;;;;;;4970293;28;20041;-74
2023/08/10 12:18:05;;;;;;;2.47;0.65;;;29.30;64.20;;;;;;4969684;28;20483;-77
2023/08/10 12:20:31;;;;;;;1.00;0.90;;;29.10;64.10;;;;;;4970077;28;20106;-74
2023/08/10 12:22:57;;;;;;;2.13;1.08;;;29.20;64.10;;;;;;4970065;28;20049;-75
2023/08/10 12:25:23;;;;;;;0.68;0.60;;;30.10;63.20;;;;;;4968631;28;20479;-73
2023/08/10 12:27:49;;;;;;;0.80;0.80;;;30.70;62.20;;;;;;4970342;28;20058;-73
2023/08/10 12:30:15;;;;;;;2.47;1.10;;;31.90;61.00;;;;;;4968705;28;20030;-75
2023/08/10 12:32:40;;;;;;;3.05;0.80;;;31.70;61.90;;;;;;4969784;28;20106;-74
2023/08/10 12:35:06;;;;;;;0.90;0.75;;;31.90;59.70;;;;;;4968749;28;20106;-76
2023/08/10 12:37:32;;;;;;;1.55;0.90;;;32.40;58.90;;;;;;4969782;28;20045;-75
2023/08/10 12:39:58;;;;;;;2.28;1.15;;;32.00;59.70;;;;;;4952486;28;20034;-76
2023/08/10 12:42:26;;;;;;;0.82;0.82;;;30.80;58.80;;;;;;4954507;28;20109;-75
2023/08/10 12:44:52;;;;;;;1.17;0.70;;;31.70;60.80;;;;;;4973758;28;20101;-77
2023/08/10 12:47:18;;;;;;;1.77;1.10;;;31.70;59.30;;;;;;4973341;28;20622;-74
2023/08/10 12:49:43;;;;;;;1.15;1.02;;;30.90;58.00;;;;;;4972446;28;20031;-74